createdAt,value
2023-01-21T00:01:19.574Z,98089.66
2023-01-21T00:03:46.615Z,98096.41
2023-01-21T00:06:15.016Z,98099.00
2023-01-21T00:08:41.976Z,98097.31
2023-01-21T00:11:13.679Z,98095.69
2023-01-21T00:13:41.996Z,98094.94
2023-01-21T00:16:09.835Z,98091.59
2023-01-21T00:18:36.800Z,98094.19
2023-01-21T00:21:03.695Z,98093.38
2023-01-21T00:23:30.555Z,98095.94
2023-01-21T00:26:06.564Z,98098.47
2023-01-21T00:28:36.230Z,98112.91
2023-01-21T00:31:06.746Z,98112.13
2023-01-21T00:33:34.648Z,98114.72
2023-01-21T00:36:08.712Z,98114.72
2023-01-21T00:38:36.275Z,98113.03
2023-01-21T00:41:10.702Z,98105.47
2023-01-21T00:43:39.250Z,98114.75
2023-01-21T00:46:06.726Z,98109.59
2023-01-21T00:48:34.329Z,98121.44
2023-01-21T00:51:01.290Z,98114.72
2023-01-21T00:53:32.014Z,98123.19
2023-01-21T00:56:04.263Z,98133.34
2023-01-21T00:58:31.747Z,98126.56
2023-01-21T01:01:09.170Z,98126.53
2023-01-21T01:03:38.018Z,98125.63
2023-01-21T01:06:13.311Z,98119.59
2023-01-21T01:08:40.747Z,98127.19
2023-01-21T01:11:07.907Z,98118.72
2023-01-21T01:13:36.196Z,98133.03
2023-01-21T01:16:03.913Z,98136.31
2023-01-21T01:18:34.531Z,98137.13
2023-01-21T01:21:02.405Z,98143.78
2023-01-21T01:23:29.752Z,98148.81
2023-01-21T01:26:10.590Z,98141.06
2023-01-21T01:28:37.496Z,98142.66
2023-01-21T01:31:07.890Z,98152.78
2023-01-21T01:33:36.040Z,98151.81
2023-01-21T01:36:10.475Z,98161.94
2023-01-21T01:38:37.219Z,98161.00
2023-01-21T01:41:04.393Z,98160.97
2023-01-21T01:44:04.590Z,98165.16
2023-01-21T01:46:35.442Z,98158.34
2023-01-21T01:49:19.333Z,98172.66
2023-01-21T01:51:54.611Z,98165.78
2023-01-21T01:54:35.084Z,98172.50
2023-01-21T01:57:06.649Z,98167.34
2023-01-21T01:59:33.857Z,98169.84
2023-01-21T02:02:08.937Z,98165.53
2023-01-21T02:04:46.048Z,98170.59
2023-01-21T02:07:12.836Z,98168.03
2023-01-21T02:09:39.600Z,98163.75
2023-01-21T02:12:07.289Z,98164.50
2023-01-21T02:14:42.702Z,98161.91
2023-01-21T02:18:06.102Z,98156.72
2023-01-21T02:21:47.761Z,98154.09
2023-01-21T02:25:12.931Z,98149.88
2023-01-21T02:28:25.134Z,98154.13
2023-01-21T02:31:13.358Z,98159.28
2023-01-21T02:34:21.019Z,98160.22
2023-01-21T02:37:31.027Z,98154.41
2023-01-21T02:40:13.443Z,98150.19
2023-01-21T02:42:50.979Z,98153.63
2023-01-21T02:45:32.345Z,98149.41
2023-01-21T02:48:14.601Z,98143.47
2023-01-21T02:50:46.619Z,98143.44
2023-01-21T02:53:39.560Z,98156.06
2023-01-21T02:56:15.857Z,98158.59
2023-01-21T02:58:52.355Z,98153.47
2023-01-21T03:01:58.484Z,98157.66
2023-01-21T03:04:57.005Z,98156.78
2023-01-21T03:07:34.695Z,98163.56
2023-01-21T03:10:28.901Z,98157.66
2023-01-21T03:13:06.778Z,98161.94
2023-01-21T03:16:06.583Z,98167.03
2023-01-21T03:18:44.489Z,98167.91
2023-01-21T03:21:20.907Z,98158.63
2023-01-21T03:23:52.059Z,98161.97
2023-01-21T03:26:32.351Z,98162.75
2023-01-21T03:29:07.595Z,98166.06
2023-01-21T03:31:39.208Z,98161.84
2023-01-21T03:34:13.785Z,98161.78
2023-01-21T03:37:02.907Z,98162.63
2023-01-21T03:39:54.853Z,98159.16
2023-01-21T03:42:22.766Z,98159.94
2023-01-21T03:44:49.602Z,98156.50
2023-01-21T03:47:33.949Z,98160.66
2023-01-21T03:50:05.274Z,98175.88
2023-01-21T03:52:32.923Z,98165.63
2023-01-21T03:55:00.150Z,98163.88
2023-01-21T03:57:26.906Z,98155.38
2023-01-21T03:59:54.255Z,98154.50
2023-01-21T04:02:21.186Z,98156.16
2023-01-21T04:04:48.377Z,98162.88
2023-01-21T04:07:16.170Z,98148.41
2023-01-21T04:09:43.540Z,98151.78
2023-01-21T04:12:10.658Z,98151.75
2023-01-21T04:14:37.906Z,98153.38
2023-01-21T04:17:05.079Z,98153.31
2023-01-21T04:19:32.033Z,98149.88
2023-01-21T04:21:58.782Z,98148.09
2023-01-21T04:24:25.875Z,98151.50
2023-01-21T04:26:53.282Z,98153.09
2023-01-21T04:29:20.626Z,98151.34
2023-01-21T04:31:48.183Z,98150.44
2023-01-21T04:34:16.648Z,98146.06
2023-01-21T04:36:43.371Z,98156.19
2023-01-21T04:39:11.296Z,98153.63
2023-01-21T04:41:38.112Z,98147.72
2023-01-21T04:44:05.181Z,98146.00
2023-01-21T04:46:31.919Z,98144.28
2023-01-21T04:48:58.655Z,98150.09
2023-01-21T04:51:25.430Z,98155.16
2023-01-21T04:53:52.153Z,98155.00
2023-01-21T04:56:18.869Z,98150.63
2023-01-21T04:58:45.590Z,98151.47
2023-01-21T05:01:12.340Z,98148.03
2023-01-21T05:03:39.075Z,98158.16
2023-01-21T05:06:06.009Z,98158.91
2023-01-21T05:08:38.876Z,98160.59
2023-01-21T05:11:09.319Z,98158.03
2023-01-21T05:13:36.222Z,98159.75
2023-01-21T05:16:05.724Z,98154.69
2023-01-21T05:18:32.747Z,98168.28
2023-01-21T05:20:59.775Z,98167.44
2023-01-21T05:23:26.546Z,98163.19
2023-01-21T05:25:53.322Z,98174.22
2023-01-21T05:28:20.254Z,98175.03
2023-01-21T05:30:47.065Z,98171.63
2023-01-21T05:33:13.894Z,98169.03
2023-01-21T05:35:40.677Z,98183.44
2023-01-21T05:38:09.704Z,98180.09
2023-01-21T05:40:36.451Z,98170.81
2023-01-21T05:43:03.205Z,98181.06
2023-01-21T05:45:29.943Z,98181.91
2023-01-21T05:47:56.680Z,98181.94
2023-01-21T05:50:23.435Z,98182.81
2023-01-21T05:52:51.518Z,98183.69
2023-01-21T05:55:18.790Z,98188.78
2023-01-21T05:57:45.626Z,98181.09
2023-01-21T06:00:13.294Z,98182.72
2023-01-21T06:02:40.048Z,98190.31
2023-01-21T06:05:07.358Z,98185.19
2023-01-21T06:07:34.102Z,98192.00
2023-01-21T06:10:00.802Z,98197.06
2023-01-21T06:12:27.524Z,98190.28
2023-01-21T06:14:54.264Z,98194.50
2023-01-21T06:17:21.015Z,98190.28
2023-01-21T06:19:47.883Z,98188.53
2023-01-21T06:22:18.718Z,98185.97
2023-01-21T06:24:45.509Z,98186.72
2023-01-21T06:27:12.775Z,98186.66
2023-01-21T06:29:39.543Z,98184.91
2023-01-21T06:32:06.573Z,98180.63
2023-01-21T06:34:33.391Z,98178.88
2023-01-21T06:37:00.131Z,98178.84
2023-01-21T06:39:30.731Z,98190.66
2023-01-21T06:41:58.010Z,98192.34
2023-01-21T06:44:25.032Z,98185.44
2023-01-21T06:47:00.767Z,98191.34
2023-01-21T06:49:27.888Z,98189.59
2023-01-21T06:51:54.628Z,98193.81
2023-01-21T06:54:21.383Z,98194.66
2023-01-21T06:56:48.091Z,98201.47
2023-01-21T06:59:14.839Z,98203.06
2023-01-21T07:01:41.658Z,98206.41
2023-01-21T07:04:08.458Z,98211.47
2023-01-21T07:06:35.184Z,98222.47
2023-01-21T07:09:03.641Z,98207.88
2023-01-21T07:11:31.256Z,98212.00
2023-01-21T07:13:58.234Z,98216.19
2023-01-21T07:16:25.363Z,98222.97
2023-01-21T07:18:52.377Z,98215.28
2023-01-21T07:21:19.362Z,98228.84
2023-01-21T07:23:46.627Z,98223.66
2023-01-21T07:26:13.331Z,98223.59
2023-01-21T07:28:40.026Z,98221.88
2023-01-21T07:31:06.814Z,98226.94
2023-01-21T07:33:33.647Z,98229.47
2023-01-21T07:36:00.419Z,98226.78
2023-01-21T07:38:27.527Z,98224.19
2023-01-21T07:40:54.360Z,98220.72
2023-01-21T07:43:21.189Z,98222.25
2023-01-21T07:45:48.286Z,98222.97
2023-01-21T07:48:16.688Z,98225.47
2023-01-21T07:50:43.424Z,98221.94
2023-01-21T07:53:12.301Z,98227.81
2023-01-21T07:55:39.121Z,98230.31
2023-01-21T07:58:05.943Z,98223.41
2023-01-21T08:00:32.730Z,98225.03
2023-01-21T08:02:59.528Z,98218.09
2023-01-21T08:05:26.887Z,98220.50
2023-01-21T08:07:58.288Z,98219.44
2023-01-21T08:10:26.058Z,98227.84
2023-01-21T08:12:52.867Z,98223.47
2023-01-21T08:15:19.857Z,98227.59
2023-01-21T08:17:47.413Z,98212.13
2023-01-21T08:20:14.655Z,98223.84
2023-01-21T08:22:41.402Z,98219.41
2023-01-21T08:25:08.873Z,98232.09
2023-01-21T08:27:35.590Z,98231.13
2023-01-21T08:30:02.333Z,98242.94
2023-01-21T08:32:32.139Z,98243.63
2023-01-21T08:34:58.878Z,98239.28
2023-01-21T08:37:25.748Z,98257.00
2023-01-21T08:39:52.449Z,98251.72
2023-01-21T08:42:19.242Z,98254.03
2023-01-21T08:44:46.351Z,98257.22
2023-01-21T08:47:13.043Z,98258.75
2023-01-21T08:49:39.750Z,98259.50
2023-01-21T08:52:06.581Z,98272.19
2023-01-21T08:54:33.305Z,98259.28
2023-01-21T08:57:00.046Z,98265.25
2023-01-21T08:59:28.647Z,98266.81
2023-01-21T09:01:56.775Z,98271.88
2023-01-21T09:04:23.692Z,98277.00
2023-01-21T09:06:50.461Z,98272.75
2023-01-21T09:09:17.169Z,98270.94
2023-01-21T09:11:44.259Z,98273.34
2023-01-21T09:14:11.006Z,98279.34
2023-01-21T09:16:38.518Z,98285.09
2023-01-21T09:19:05.630Z,98296.91
2023-01-21T09:21:34.543Z,98288.28
2023-01-21T09:24:02.606Z,98288.28
2023-01-21T09:26:29.450Z,98295.88
2023-01-21T09:29:01.370Z,98297.44
2023-01-21T09:31:30.492Z,98293.03
2023-01-21T09:34:03.899Z,98302.22
2023-01-21T09:36:34.157Z,98295.22
2023-01-21T09:39:01.574Z,98297.63
2023-01-21T09:41:39.528Z,98309.47
2023-01-21T09:44:14.993Z,98308.53
2023-01-21T09:47:09.799Z,98305.19
2023-01-21T09:49:49.463Z,98310.22
2023-01-21T09:52:44.153Z,98312.84
2023-01-21T09:55:23.099Z,98294.00
2023-01-21T09:58:30.181Z,98308.25
2023-01-21T10:01:15.487Z,98308.91
2023-01-21T10:03:56.491Z,98310.63
2023-01-21T10:06:40.619Z,98308.16
2023-01-21T10:09:38.702Z,98315.84
2023-01-21T10:12:34.728Z,98302.94
2023-01-21T10:15:26.327Z,98298.41
2023-01-21T10:18:14.883Z,98301.56
2023-01-21T10:21:00.312Z,98307.56
2023-01-21T10:23:38.956Z,98299.94
2023-01-21T10:26:10.078Z,98304.03
2023-01-21T10:28:42.383Z,98302.16
2023-01-21T10:31:25.236Z,98309.69
2023-01-21T10:33:52.781Z,98307.88
2023-01-21T10:37:01.277Z,98313.78
2023-01-21T10:39:54.827Z,98308.66
2023-01-21T10:42:51.367Z,98306.84
2023-01-21T10:45:48.301Z,98311.16
2023-01-21T10:48:30.930Z,98317.13
2023-01-21T10:51:29.642Z,98300.19
2023-01-21T10:54:08.647Z,98305.41
2023-01-21T10:56:47.178Z,98303.09
2023-01-21T10:59:21.268Z,98297.09
2023-01-21T11:02:10.074Z,98308.84
2023-01-21T11:04:41.187Z,98301.88
2023-01-21T11:07:14.297Z,98312.75
2023-01-21T11:09:48.643Z,98291.22
2023-01-21T11:12:21.927Z,98290.25
2023-01-21T11:14:58.572Z,98286.03
2023-01-21T11:17:33.465Z,98290.22
2023-01-21T11:20:05.403Z,98291.66
2023-01-21T11:22:33.169Z,98284.72
2023-01-21T11:25:02.362Z,98290.53
2023-01-21T11:27:34.433Z,98292.06
2023-01-21T11:30:02.543Z,98283.53
2023-01-21T11:32:33.172Z,98283.56
2023-01-21T11:35:20.165Z,98276.69
2023-01-21T11:37:47.241Z,98275.09
2023-01-21T11:40:25.908Z,98270.72
2023-01-21T11:42:57.335Z,98274.19
2023-01-21T11:45:38.519Z,98278.44
2023-01-21T11:48:20.895Z,98274.19
2023-01-21T11:50:47.791Z,98271.53
2023-01-21T11:53:21.797Z,98267.84
2023-01-21T11:55:57.051Z,98261.94
2023-01-21T11:58:32.707Z,98265.19
2023-01-21T12:01:21.893Z,98253.94
2023-01-21T12:03:54.538Z,98255.25
2023-01-21T12:06:27.233Z,98251.72
2023-01-21T12:09:04.169Z,98244.91
2023-01-21T12:11:32.592Z,98249.09
2023-01-21T12:14:34.400Z,98258.06
2023-01-21T12:17:28.386Z,98253.59
2023-01-21T12:20:19.754Z,98242.97
2023-01-21T12:23:40.411Z,98248.25
2023-01-21T12:26:36.690Z,98237.09
2023-01-21T12:29:39.584Z,98225.94
2023-01-21T12:32:39.455Z,98233.97
2023-01-21T12:35:26.349Z,98231.31
2023-01-21T12:38:27.815Z,98239.16
2023-01-21T12:41:13.064Z,98233.09
2023-01-21T12:43:54.219Z,98246.78
2023-01-21T12:46:36.733Z,98254.16
2023-01-21T12:49:48.981Z,98253.94
2023-01-21T12:52:48.606Z,98256.06
2023-01-21T12:55:30.792Z,98253.31
2023-01-21T12:58:24.916Z,98255.56
2023-01-21T13:00:55.132Z,98259.34
2023-01-21T13:03:32.844Z,98260.34
2023-01-21T13:07:05.782Z,98246.09
2023-01-21T13:09:49.153Z,98254.75
2023-01-21T13:12:22.532Z,98244.53
2023-01-21T13:15:01.479Z,98247.94
2023-01-21T13:17:42.558Z,98242.69
2023-01-21T13:20:22.076Z,98255.53
2023-01-21T13:22:56.010Z,98254.84
2023-01-21T13:25:34.971Z,98247.28
2023-01-21T13:28:19.741Z,98246.69
2023-01-21T13:30:46.460Z,98248.41
2023-01-21T13:33:39.699Z,98253.41
2023-01-21T13:36:33.903Z,98253.41
2023-01-21T13:39:17.642Z,98251.91
2023-01-21T13:42:04.135Z,98249.44
2023-01-21T13:45:30.560Z,98259.78
2023-01-21T13:48:26.796Z,98255.53
2023-01-21T13:51:15.372Z,98248.59
2023-01-21T13:54:11.511Z,98249.44
2023-01-21T13:57:06.159Z,98254.47
2023-01-21T13:59:56.300Z,98253.47
2023-01-21T14:02:37.361Z,98247.50
2023-01-21T14:05:39.695Z,98251.84
2023-01-21T14:08:38.705Z,98252.81
2023-01-21T14:11:22.824Z,98264.91
2023-01-21T14:14:28.552Z,98268.34
2023-01-21T14:17:28.492Z,98264.28
2023-01-21T14:20:19.123Z,98266.09
2023-01-21T14:23:18.247Z,98258.50
2023-01-21T14:26:06.266Z,98261.97
2023-01-21T14:29:09.531Z,98255.84
2023-01-21T14:31:47.109Z,98250.59
2023-01-21T14:34:29.881Z,98248.91
2023-01-21T14:37:11.707Z,98254.88
2023-01-21T14:40:11.001Z,98246.41
2023-01-21T14:42:51.058Z,98257.56
2023-01-21T14:45:25.757Z,98249.16
2023-01-21T14:47:55.565Z,98254.38
2023-01-21T14:50:45.884Z,98255.38
2023-01-21T14:53:27.112Z,98261.47
2023-01-21T14:56:22.234Z,98262.44
2023-01-21T14:59:00.402Z,98266.75
2023-01-21T15:01:45.165Z,98259.91
2023-01-21T15:04:25.903Z,98260.88
2023-01-21T15:07:03.193Z,98265.25
2023-01-21T15:09:37.121Z,98260.38
2023-01-21T15:12:15.678Z,98279.25
2023-01-21T15:14:44.698Z,98270.78
2023-01-21T15:18:03.799Z,98273.50
2023-01-21T15:20:42.539Z,98271.78
2023-01-21T15:23:30.181Z,98276.91
2023-01-21T15:26:32.021Z,98271.88
2023-01-21T15:29:29.894Z,98278.72
2023-01-21T15:32:31.137Z,98292.34
2023-01-21T15:35:35.321Z,98289.78
2023-01-21T15:38:11.707Z,98278.78
2023-01-21T15:40:48.129Z,98277.94
2023-01-21T15:43:40.537Z,98283.91
2023-01-21T15:46:34.779Z,98296.69
2023-01-21T15:49:31.824Z,98279.69
2023-01-21T15:52:20.575Z,98284.78
2023-01-21T15:55:24.335Z,98291.59
2023-01-21T15:58:46.482Z,98288.19
2023-01-21T16:01:32.665Z,98281.41
2023-01-21T16:04:15.821Z,98286.63
2023-01-21T16:07:09.578Z,98280.72
2023-01-21T16:10:03.047Z,98296.94
2023-01-21T16:13:13.477Z,98296.16
2023-01-21T16:16:07.494Z,98302.22
2023-01-21T16:19:03.228Z,98296.22
2023-01-21T16:21:34.935Z,98301.44
2023-01-21T16:24:11.099Z,98301.41
2023-01-21T16:26:37.832Z,98305.78
2023-01-21T16:29:11.175Z,98303.16
2023-01-21T16:32:01.372Z,98303.25
2023-01-21T16:34:30.871Z,98302.38
2023-01-21T16:36:58.059Z,98306.59
2023-01-21T16:39:25.909Z,98298.94
2023-01-21T16:42:05.524Z,98299.78
2023-01-21T16:44:34.159Z,98305.78
2023-01-21T16:47:02.473Z,98312.66
2023-01-21T16:49:29.534Z,98311.00
2023-01-21T16:52:05.128Z,98309.22
2023-01-21T16:54:33.141Z,98306.72
2023-01-21T16:57:22.759Z,98305.88
2023-01-21T16:59:49.788Z,98311.88
2023-01-21T17:02:28.978Z,98305.13
2023-01-21T17:04:58.983Z,98314.53
2023-01-21T17:07:34.928Z,98309.44
2023-01-21T17:10:17.151Z,98306.84
2023-01-21T17:12:52.937Z,98300.91
2023-01-21T17:15:38.414Z,98306.91
2023-01-21T17:18:10.705Z,98303.47
2023-01-21T17:20:49.115Z,98308.59
2023-01-21T17:23:18.783Z,98310.31
2023-01-21T17:25:56.629Z,98314.53
2023-01-21T17:28:46.962Z,98312.88
2023-01-21T17:31:16.829Z,98311.19
2023-01-21T17:33:44.147Z,98320.59
2023-01-21T17:36:15.965Z,98315.47
2023-01-21T17:38:46.394Z,98310.34
2023-01-21T17:41:29.023Z,98323.16
2023-01-21T17:43:56.587Z,98319.81
2023-01-21T17:46:24.674Z,98324.09
2023-01-21T17:48:58.944Z,98313.84
2023-01-21T17:51:30.469Z,98323.19
2023-01-21T17:54:05.131Z,98315.56
2023-01-21T17:56:48.808Z,98323.28
2023-01-21T17:59:38.478Z,98321.56
2023-01-21T18:02:17.395Z,98320.69
2023-01-21T18:04:44.700Z,98319.84
2023-01-21T18:07:37.785Z,98317.34
2023-01-21T18:10:14.080Z,98314.88
2023-01-21T18:12:40.795Z,98319.09
2023-01-21T18:15:08.188Z,98311.44
2023-01-21T18:17:37.502Z,98313.19
2023-01-21T18:20:12.118Z,98312.38
2023-01-21T18:22:38.826Z,98314.16
2023-01-21T18:25:06.718Z,98309.03
2023-01-21T18:27:33.514Z,98309.88
2023-01-21T18:30:01.673Z,98308.16
2023-01-21T18:32:28.413Z,98310.72
2023-01-21T18:34:55.137Z,98310.72
2023-01-21T18:37:21.825Z,98304.75
2023-01-21T18:39:48.707Z,98299.63
2023-01-21T18:42:18.004Z,98308.16
2023-01-21T18:44:45.245Z,98305.59
2023-01-21T18:47:18.012Z,98305.59
2023-01-21T18:49:47.523Z,98301.25
2023-01-21T18:52:17.814Z,98301.25
2023-01-21T18:54:44.982Z,98304.75
2023-01-21T18:57:17.138Z,98309.03
2023-01-21T18:59:43.992Z,98306.56
2023-01-21T19:02:17.901Z,98303.22
2023-01-21T19:04:46.374Z,98299.81
2023-01-21T19:07:20.357Z,98293.88
2023-01-21T19:09:50.459Z,98301.50
2023-01-21T19:12:21.008Z,98295.53
2023-01-21T19:14:48.701Z,98295.53
2023-01-21T19:17:28.676Z,98293.03
2023-01-21T19:19:56.961Z,98292.25
2023-01-21T19:22:23.791Z,98276.91
2023-01-21T19:24:50.708Z,98275.19
2023-01-21T19:27:29.874Z,98272.63
2023-01-21T19:29:56.791Z,98270.94
2023-01-21T19:32:23.762Z,98265.03
2023-01-21T19:34:50.641Z,98268.47
2023-01-21T19:37:21.641Z,98269.34
2023-01-21T19:39:48.356Z,98267.63
2023-01-21T19:42:16.465Z,98269.28
2023-01-21T19:44:43.231Z,98270.22
2023-01-21T19:47:27.944Z,98276.19
2023-01-21T19:49:54.662Z,98267.56
2023-01-21T19:52:21.402Z,98272.63
2023-01-21T19:54:48.125Z,98276.03
2023-01-21T19:57:17.508Z,98275.19
2023-01-21T19:59:45.809Z,98271.75
2023-01-21T20:02:12.897Z,98271.69
2023-01-21T20:04:39.716Z,98266.53
2023-01-21T20:07:07.160Z,98271.66
2023-01-21T20:09:33.910Z,98271.66
2023-01-21T20:12:03.333Z,98270.81
2023-01-21T20:14:31.126Z,98274.22
2023-01-21T20:16:57.972Z,98273.41
2023-01-21T20:19:24.703Z,98277.69
2023-01-21T20:22:01.281Z,98270.84
2023-01-21T20:24:30.103Z,98275.97
2023-01-21T20:26:58.309Z,98281.03
2023-01-21T20:29:26.854Z,98275.91
2023-01-21T20:31:54.223Z,98274.25
2023-01-21T20:34:21.067Z,98273.41
2023-01-21T20:36:49.462Z,98276.81
2023-01-21T20:39:16.158Z,98277.66
2023-01-21T20:41:43.394Z,98280.19
2023-01-21T20:44:10.592Z,98289.50
2023-01-21T20:46:43.308Z,98280.94
2023-01-21T20:49:11.775Z,98281.69
2023-01-21T20:51:38.557Z,98289.34
2023-01-21T20:54:05.329Z,98292.75
2023-01-21T20:56:32.864Z,98285.84
2023-01-21T20:58:59.947Z,98292.75
2023-01-21T21:01:28.530Z,98280.78
2023-01-21T21:03:55.359Z,98290.19
2023-01-21T21:06:27.585Z,98281.63
2023-01-21T21:08:54.586Z,98284.13
2023-01-21T21:11:21.754Z,98285.84
2023-01-21T21:13:51.633Z,98276.53
2023-01-21T21:16:27.565Z,98283.34
2023-01-21T21:18:54.411Z,98286.81
2023-01-21T21:21:23.513Z,98283.41
2023-01-21T21:23:52.200Z,98287.63
2023-01-21T21:26:24.070Z,98288.53
2023-01-21T21:28:54.649Z,98285.97
2023-01-21T21:31:22.607Z,98280.00
2023-01-21T21:33:49.877Z,98279.94
2023-01-21T21:36:20.559Z,98282.50
2023-01-21T21:38:48.828Z,98280.75
2023-01-21T21:41:37.278Z,98288.41
2023-01-21T21:44:05.720Z,98282.41
2023-01-21T21:46:51.232Z,98288.38
2023-01-21T21:49:18.203Z,98284.09
2023-01-21T21:51:45.943Z,98282.38
2023-01-21T21:54:15.572Z,98284.88
2023-01-21T21:56:42.811Z,98283.19
2023-01-21T21:59:11.246Z,98292.50
2023-01-21T22:01:38.733Z,98291.56
2023-01-21T22:04:05.582Z,98289.88
2023-01-21T22:06:33.197Z,98290.69
2023-01-21T22:09:00.198Z,98296.69
2023-01-21T22:11:28.589Z,98289.88
2023-01-21T22:13:56.723Z,98296.69
2023-01-21T22:16:27.156Z,98284.72
2023-01-21T22:18:55.982Z,98280.50
2023-01-21T22:21:26.896Z,98288.13
2023-01-21T22:23:54.751Z,98279.56
2023-01-21T22:26:24.942Z,98282.09
2023-01-21T22:28:52.694Z,98277.81
2023-01-21T22:31:25.720Z,98275.25
2023-01-21T22:33:53.016Z,98273.50
2023-01-21T22:36:23.627Z,98275.22
2023-01-21T22:38:51.725Z,98285.44
2023-01-21T22:41:22.523Z,98272.72
2023-01-21T22:43:50.378Z,98280.44
2023-01-21T22:46:24.268Z,98281.28
2023-01-21T22:48:53.448Z,98276.22
2023-01-21T22:51:22.782Z,98276.22
2023-01-21T22:53:50.481Z,98279.63
2023-01-21T22:56:23.411Z,98274.44
2023-01-21T22:58:50.462Z,98275.25
2023-01-21T23:01:27.273Z,98277.81
2023-01-21T23:03:54.600Z,98265.91
2023-01-21T23:06:21.483Z,98263.44
2023-01-21T23:08:48.686Z,98268.47
2023-01-21T23:11:17.835Z,98275.16
2023-01-21T23:13:45.123Z,98275.13
2023-01-21T23:16:16.898Z,98267.44
2023-01-21T23:18:43.937Z,98276.00
2023-01-21T23:21:19.015Z,98280.28
2023-01-21T23:23:45.902Z,98270.06
2023-01-21T23:26:14.317Z,98272.56
2023-01-21T23:28:41.310Z,98277.69
2023-01-21T23:31:13.255Z,98273.41
2023-01-21T23:33:41.372Z,98264.94
2023-01-21T23:36:15.556Z,98265.88
2023-01-21T23:38:43.148Z,98277.72
2023-01-21T23:41:13.908Z,98262.38
2023-01-21T23:43:40.888Z,98264.78
2023-01-21T23:46:13.111Z,98263.06
2023-01-21T23:48:39.999Z,98259.63
2023-01-21T23:51:12.139Z,98260.41
2023-01-21T23:53:38.959Z,98261.34
2023-01-21T23:56:15.270Z,98258.84
2023-01-21T23:58:42.112Z,98252.94
